Time;durP1;ratioP1;P1;durP2;ratioP2;P2;SDS_P1;SDS_P2;PMS_P1;PMS_P2;Temp;Humidity;BMP_temperature;BMP_pressure;BME280_temperature;BME280_humidity;BME280_pressure;Samples;Min_cycle;Max_cycle;Signal;HPM_P1;HPM_P2
2023/12/23 00:02:16;;;;;;;1.58;0.20;;;;;;;0.44;82.39;97496.06;5045494;28;20041;-77
2023/12/23 00:04:42;;;;;;;0.55;0.30;;;;;;;0.43;82.25;97494.38;5042884;28;20544;-77
2023/12/23 00:07:12;;;;;;;0.30;0.20;;;;;;;0.42;82.47;97492.69;5047640;28;20049;-77
2023/12/23 00:09:39;;;;;;;0.45;0.20;;;;;;;0.44;82.03;97505.50;5045136;28;20059;-77
2023/12/23 00:12:08;;;;;;;0.30;0.20;;;;;;;0.43;82.55;97503.84;5046095;28;21049;-76
2023/12/23 00:14:37;;;;;;;0.30;0.20;;;;;;;0.32;81.89;97484.47;5044902;28;20041;-76
2023/12/23 00:17:04;;;;;;;1.05;0.20;;;;;;;0.44;82.65;97505.50;5042921;28;20076;-76
2023/12/23 00:19:31;;;;;;;4.72;0.77;;;;;;;0.44;82.58;97508.06;5044232;28;20578;-76
2023/12/23 00:21:58;;;;;;;0.40;0.20;;;;;;;0.43;82.16;97517.53;5044110;28;20128;-76
2023/12/23 00:24:26;;;;;;;0.90;0.47;;;;;;;0.44;82.42;97518.38;5041748;28;20562;-77
2023/12/23 00:26:57;;;;;;;0.60;0.30;;;;;;;0.42;82.01;97515.84;5042251;28;20087;-77
2023/12/23 00:29:24;;;;;;;0.50;0.20;;;;;;;0.42;82.21;97525.28;5047357;28;20508;-77
2023/12/23 00:31:52;;;;;;;0.30;0.20;;;;;;;0.43;82.17;97530.41;5039910;28;22039;-76
2023/12/23 00:34:19;;;;;;;0.20;0.17;;;;;;;0.42;81.97;97526.13;5041489;28;20068;-77
2023/12/23 00:36:46;;;;;;;1.02;0.10;;;;;;;0.42;82.18;97533.00;5040097;28;20716;-77
2023/12/23 00:39:14;;;;;;;0.30;0.17;;;;;;;0.40;82.39;97540.78;5045686;28;20522;-76
2023/12/23 00:41:41;;;;;;;0.52;0.20;;;;;;;0.42;82.27;97546.69;5042728;28;20203;-76
2023/12/23 00:44:09;;;;;;;0.32;0.20;;;;;;;0.43;82.24;97550.97;5045998;28;20072;-76
2023/12/23 00:46:35;;;;;;;0.30;0.10;;;;;;;0.38;81.77;97552.84;5043448;28;20692;-77
2023/12/23 00:49:04;;;;;;;0.73;0.20;;;;;;;0.38;82.32;97552.00;5051984;28;20080;-76
2023/12/23 00:51:31;;;;;;;0.75;0.20;;;;;;;0.42;82.44;97569.84;5043072;28;20613;-73
2023/12/23 00:53:58;;;;;;;0.50;0.50;;;;;;;0.42;82.12;97559.56;5044101;28;20045;-72
2023/12/23 00:56:25;;;;;;;0.50;0.20;;;;;;;0.37;81.93;97556.31;5044349;28;20045;-71
2023/12/23 00:58:52;;;;;;;0.32;0.15;;;;;;;0.41;82.42;97570.75;5042021;28;20404;-72
2023/12/23 01:01:19;;;;;;;0.73;0.20;;;;;;;0.37;81.99;97569.19;5042787;28;20128;-72
2023/12/23 01:03:46;;;;;;;0.30;0.10;;;;;;;0.39;82.19;97575.09;5041360;28;20080;-72
2023/12/23 01:06:14;;;;;;;0.40;0.20;;;;;;;0.40;82.40;97574.22;5046553;28;20128;-72
2023/12/23 01:08:41;;;;;;;0.68;0.30;;;;;;;0.41;82.14;97575.06;5042235;28;20132;-72
2023/12/23 01:11:09;;;;;;;0.65;0.30;;;;;;;0.41;82.35;97583.59;5040989;28;20499;-72
2023/12/23 01:13:36;;;;;;;0.73;0.38;;;;;;;0.40;82.23;97592.22;5042674;28;20140;-72
2023/12/23 01:16:04;;;;;;;2.42;0.60;;;;;;;0.40;82.35;97591.38;5044964;28;20072;-72
2023/12/23 01:18:30;;;;;;;0.52;0.20;;;;;;;0.40;81.97;97597.38;5039998;28;20080;-73
2023/12/23 01:20:57;;;;;;;0.60;0.30;;;;;;;0.41;82.05;97593.06;5043791;28;20487;-72
2023/12/23 01:23:26;;;;;;;0.45;0.15;;;;;;;0.41;82.34;97599.03;5042886;28;20144;-72
2023/12/23 01:25:53;;;;;;;0.55;0.20;;;;;;;0.38;82.50;97599.13;5042802;28;20079;-73
2023/12/23 01:28:20;;;;;;;0.40;0.10;;;;;;;0.40;82.33;97606.81;5039757;28;20076;-72
2023/12/23 01:30:46;;;;;;;0.85;0.30;;;;;;;0.39;81.92;97605.94;5044338;28;20523;-72
2023/12/23 01:33:13;;;;;;;0.50;0.20;;;;;;;0.40;82.29;97611.97;5043208;28;21003;-72
2023/12/23 01:35:40;;;;;;;1.05;0.30;;;;;;;0.39;82.22;97616.25;5042813;28;20466;-72
2023/12/23 01:38:07;;;;;;;2.15;0.20;;;;;;;0.39;82.24;97617.97;5039022;28;20080;-71
2023/12/23 01:40:36;;;;;;;0.50;0.20;;;;;;;0.39;82.35;97631.66;5041716;28;20076;-71
2023/12/23 01:43:03;;;;;;;0.50;0.20;;;;;;;0.38;81.75;97624.84;5040145;28;20041;-72
2023/12/23 01:45:30;;;;;;;0.60;0.20;;;;;;;0.32;82.31;97612.19;5043751;28;20136;-72
2023/12/23 01:47:58;;;;;;;0.68;0.20;;;;;;;0.37;82.17;97628.31;5041346;28;20083;-72
2023/12/23 01:50:27;;;;;;;0.40;0.20;;;;;;;0.37;82.54;97630.91;5043730;28;20109;-71
2023/12/23 01:52:56;;;;;;;0.57;0.20;;;;;;;0.38;81.96;97630.00;5037028;28;20140;-72
2023/12/23 01:55:27;;;;;;;0.20;0.20;;;;;;;0.34;82.10;97634.41;5039838;28;20128;-72
2023/12/23 01:57:56;;;;;;;0.60;0.30;;;;;;;0.36;82.31;97636.91;5038579;28;20506;-72
2023/12/23 02:00:23;;;;;;;0.28;0.20;;;;;;;0.35;82.11;97633.50;5040076;28;20073;-73
2023/12/23 02:02:50;;;;;;;0.65;0.20;;;;;;;0.35;81.87;97640.38;5043262;28;20513;-73
2023/12/23 02:05:17;;;;;;;0.40;0.20;;;;;;;0.34;81.92;97638.72;5040387;28;20051;-72
2023/12/23 02:07:45;;;;;;;0.22;0.17;;;;;;;0.35;81.54;97648.94;5034303;28;20648;-73
2023/12/23 02:10:13;;;;;;;0.30;0.20;;;;;;;0.35;82.13;97655.81;5044772;28;20084;-76
2023/12/23 02:12:56;;;;;;;0.57;0.20;;;;;;;0.35;81.73;97660.97;5045523;28;20411;-77
2023/12/23 02:15:26;;;;;;;0.32;0.20;;;;;;;0.35;81.84;97660.97;5042837;28;20045;-77
2023/12/23 02:18:00;;;;;;;0.40;0.20;;;;;;;0.35;82.26;97666.09;5045469;28;20049;-77
2023/12/23 02:20:27;;;;;;;0.40;0.10;;;;;;;0.34;81.90;97664.44;5049109;28;20103;-76
2023/12/23 02:22:56;;;;;;;2.45;0.20;;;;;;;0.34;82.09;97685.00;5047564;28;20072;-77
2023/12/23 02:25:23;;;;;;;0.32;0.17;;;;;;;0.34;82.18;97696.13;5042252;28;20504;-76
2023/12/23 02:27:54;;;;;;;0.45;0.28;;;;;;;0.34;82.16;97690.16;5046169;28;20471;-76
2023/12/23 02:30:25;;;;;;;0.30;0.10;;;;;;;0.33;82.03;97688.44;5043481;28;20091;-77
2023/12/23 02:32:52;;;;;;;0.20;0.20;;;;;;;0.33;82.06;97693.59;5048206;28;20083;-77
2023/12/23 02:35:23;;;;;;;1.23;0.22;;;;;;;0.32;81.54;97690.19;5043826;28;20076;-76
2023/12/23 02:37:50;;;;;;;0.50;0.20;;;;;;;0.32;82.23;97689.34;5050090;28;20068;-76
2023/12/23 02:40:18;;;;;;;0.50;0.20;;;;;;;0.33;81.94;97688.44;5042341;28;20128;-76
2023/12/23 02:42:45;;;;;;;0.57;0.30;;;;;;;0.32;81.91;97697.06;5044722;28;20522;-76
2023/12/23 02:45:12;;;;;;;1.48;0.25;;;;;;;0.31;82.04;97703.09;5046653;28;20144;-76
2023/12/23 02:47:39;;;;;;;0.90;0.20;;;;;;;0.31;81.93;97705.66;5047555;28;20130;-77
2023/12/23 02:50:07;;;;;;;1.15;0.30;;;;;;;0.29;81.20;97704.88;5040517;28;20113;-77
2023/12/23 02:52:34;;;;;;;0.45;0.20;;;;;;;0.28;81.88;97708.31;5045113;28;20120;-77
2023/12/23 02:55:01;;;;;;;0.65;0.10;;;;;;;0.27;81.87;97704.91;5046061;28;20073;-76
2023/12/23 02:57:29;;;;;;;1.38;0.25;;;;;;;0.28;81.66;97719.47;5035198;28;20606;-77
2023/12/23 02:59:56;;;;;;;0.80;0.30;;;;;;;0.27;81.82;97716.91;5045291;28;20131;-77
2023/12/23 03:02:23;;;;;;;0.63;0.32;;;;;;;0.27;81.56;97717.75;5047720;28;20041;-76
2023/12/23 03:04:50;;;;;;;0.60;0.20;;;;;;;0.26;81.57;97715.25;5040791;28;20075;-77
2023/12/23 03:07:17;;;;;;;1.23;0.35;;;;;;;0.26;81.78;97723.81;5046618;28;20124;-76
2023/12/23 03:09:44;;;;;;;0.65;0.20;;;;;;;0.26;81.54;97728.94;5034841;28;20088;-76
2023/12/23 03:12:11;;;;;;;0.40;0.17;;;;;;;0.26;81.51;97728.09;5045728;28;20115;-77
2023/12/23 03:14:41;;;;;;;0.30;0.20;;;;;;;0.27;81.72;97730.63;5042558;28;20853;-76
2023/12/23 03:17:08;;;;;;;0.82;0.60;;;;;;;0.27;81.63;97729.78;5045166;28;20076;-77
2023/12/23 03:19:35;;;;;;;0.82;0.20;;;;;;;0.27;81.73;97729.78;5042417;28;20691;-74
2023/12/23 03:22:02;;;;;;;0.77;0.20;;;;;;;0.26;81.51;97738.38;5041411;28;20118;-74
2023/12/23 03:24:29;;;;;;;0.82;0.20;;;;;;;0.26;81.01;97740.97;5038539;28;20105;-74
2023/12/23 03:26:56;;;;;;;0.80;0.40;;;;;;;0.25;81.21;97742.69;5042716;28;20127;-74
2023/12/23 03:29:23;;;;;;;0.50;0.30;;;;;;;0.26;81.72;97748.69;5037807;28;20388;-72
2023/12/23 03:31:51;;;;;;;1.00;0.20;;;;;;;0.23;81.16;97746.19;5044872;28;20080;-74
2023/12/23 03:34:18;;;;;;;0.30;0.10;;;;;;;0.25;81.15;97758.13;5040048;28;20076;-75
2023/12/23 03:36:45;;;;;;;0.30;0.10;;;;;;;0.25;81.49;97762.41;5044128;28;20073;-74
2023/12/23 03:39:12;;;;;;;0.70;0.17;;;;;;;0.25;81.78;97770.13;5043206;28;20538;-74
2023/12/23 03:41:39;;;;;;;0.22;0.10;;;;;;;0.24;81.69;97766.69;5041577;28;20073;-74
2023/12/23 03:44:06;;;;;;;0.30;0.20;;;;;;;0.24;81.48;97771.00;5041799;28;20522;-74
2023/12/23 03:46:33;;;;;;;0.10;0.10;;;;;;;0.24;81.72;97777.00;5035460;28;20127;-75
2023/12/23 03:49:01;;;;;;;3.25;0.15;;;;;;;0.23;81.30;97769.34;5037486;28;20511;-75
2023/12/23 03:51:28;;;;;;;0.30;0.10;;;;;;;0.24;81.41;97781.28;5042942;28;20064;-75
2023/12/23 03:53:55;;;;;;;0.10;0.10;;;;;;;0.23;81.42;97782.19;5042011;28;20122;-75
2023/12/23 03:56:22;;;;;;;0.28;0.10;;;;;;;0.23;81.23;97789.91;5039283;28;20062;-75
2023/12/23 03:58:49;;;;;;;0.80;0.20;;;;;;;0.23;81.42;97789.91;5039327;28;20137;-74
2023/12/23 04:01:17;;;;;;;1.10;0.10;;;;;;;0.22;80.96;97783.06;5035906;28;20160;-75
2023/12/23 04:03:44;;;;;;;0.10;0.10;;;;;;;0.22;81.43;97785.63;5042593;28;20056;-75
2023/12/23 04:06:13;;;;;;;0.10;0.10;;;;;;;0.20;81.49;97790.00;5043390;28;20132;-75
2023/12/23 04:08:41;;;;;;;0.40;0.22;;;;;;;0.15;81.41;97784.13;5041890;28;20135;-74
2023/12/23 04:11:08;;;;;;;0.52;0.50;;;;;;;0.19;81.17;97799.41;5042484;28;20081;-74
2023/12/23 04:13:35;;;;;;;0.20;0.15;;;;;;;0.19;81.15;97809.69;5042340;28;20127;-75
2023/12/23 04:16:04;;;;;;;0.45;0.20;;;;;;;0.19;81.30;97812.28;5042059;28;20050;-75
2023/12/23 04:18:31;;;;;;;0.30;0.10;;;;;;;0.19;80.94;97814.00;5038629;28;20049;-74
2023/12/23 04:20:58;;;;;;;0.30;0.10;;;;;;;0.19;81.32;97824.28;5043090;28;20072;-75
2023/12/23 04:23:27;;;;;;;0.38;0.20;;;;;;;0.16;81.05;97822.63;5046782;28;20055;-74
2023/12/23 04:25:54;;;;;;;0.65;0.20;;;;;;;0.16;80.68;97834.66;5047415;28;20076;-74
2023/12/23 04:28:24;;;;;;;0.68;0.10;;;;;;;0.15;81.24;97835.56;5043272;28;20081;-74
2023/12/23 04:30:54;;;;;;;0.20;0.20;;;;;;;0.11;81.40;97838.22;5048193;28;20139;-76
2023/12/23 04:33:22;;;;;;;1.15;0.20;;;;;;;0.09;80.73;97834.00;5046409;28;20037;-76
2023/12/23 04:35:49;;;;;;;0.50;0.20;;;;;;;0.06;80.60;97844.38;5047553;28;20045;-76
2023/12/23 04:38:16;;;;;;;0.28;0.20;;;;;;;0.05;80.59;97851.25;5044445;28;20156;-76
2023/12/23 04:40:44;;;;;;;0.25;0.10;;;;;;;0.03;80.75;97850.44;5043964;28;20040;-73
2023/12/23 04:43:11;;;;;;;0.40;0.20;;;;;;;0.02;80.30;97860.75;5043115;28;20133;-74
2023/12/23 04:45:38;;;;;;;0.50;0.20;;;;;;;-0.00;80.97;97859.97;5041591;28;20128;-74
2023/12/23 04:48:06;;;;;;;0.30;0.10;;;;;;;-0.01;80.99;97865.97;5044464;28;20041;-74
2023/12/23 04:50:33;;;;;;;0.90;0.20;;;;;;;-0.04;80.17;97868.63;5043938;28;20076;-74
2023/12/23 04:53:00;;;;;;;0.40;0.10;;;;;;;-0.07;80.32;97874.69;5042668;28;20156;-74
2023/12/23 04:55:27;;;;;;;0.57;0.20;;;;;;;-0.09;80.31;97879.00;5042747;28;20120;-74
2023/12/23 04:57:55;;;;;;;0.40;0.17;;;;;;;-0.12;80.60;97881.66;5041839;28;20073;-74
2023/12/23 05:00:22;;;;;;;1.17;0.20;;;;;;;-0.21;79.91;97871.63;5043733;28;20134;-74
2023/12/23 05:02:49;;;;;;;0.30;0.20;;;;;;;-0.17;80.00;97880.97;5043757;28;20585;-74
2023/12/23 05:05:16;;;;;;;0.30;0.20;;;;;;;-0.19;80.04;97891.25;5042989;28;20087;-74
2023/12/23 05:07:43;;;;;;;0.52;0.20;;;;;;;-0.23;80.28;97888.78;5043806;28;20578;-75
2023/12/23 05:10:10;;;;;;;0.57;0.22;;;;;;;-0.28;80.00;97885.53;5045698;28;20088;-74
2023/12/23 05:12:37;;;;;;;0.60;0.20;;;;;;;-0.27;80.00;97893.19;5043968;28;20053;-74
2023/12/23 05:15:07;;;;;;;0.80;0.30;;;;;;;-0.27;80.37;97887.19;5045332;28;20045;-74
2023/12/23 05:17:34;;;;;;;0.90;0.22;;;;;;;-0.31;79.91;97888.16;5038787;28;20049;-74
2023/12/23 05:20:01;;;;;;;0.85;0.20;;;;;;;-0.33;80.16;97894.16;5042589;28;20091;-74
2023/12/23 05:22:27;;;;;;;0.70;0.20;;;;;;;-0.36;80.26;97904.53;5044130;28;20132;-74
2023/12/23 05:24:54;;;;;;;1.17;0.20;;;;;;;-0.38;79.91;97906.28;5044925;28;20128;-74
2023/12/23 05:27:22;;;;;;;0.40;0.10;;;;;;;-0.41;80.16;97906.34;5045041;28;20076;-74
2023/12/23 05:29:49;;;;;;;0.50;0.22;;;;;;;-0.42;80.36;97919.25;5043577;28;20049;-75
2023/12/23 05:32:17;;;;;;;0.38;0.20;;;;;;;-0.44;79.66;97915.88;5037952;28;20053;-74
2023/12/23 05:34:44;;;;;;;1.08;0.50;;;;;;;-0.46;79.83;97915.06;5045810;28;20127;-74
2023/12/23 05:37:11;;;;;;;0.40;0.20;;;;;;;-0.50;80.29;97922.00;5043829;28;20077;-75
2023/12/23 05:39:39;;;;;;;0.75;0.28;;;;;;;-0.52;79.49;97922.91;5042063;28;20143;-74
2023/12/23 05:42:06;;;;;;;1.75;0.30;;;;;;;-0.54;80.17;97922.97;5041713;28;20423;-73
2023/12/23 05:44:33;;;;;;;0.90;0.20;;;;;;;-0.55;80.30;97928.97;5041637;28;20077;-74
2023/12/23 05:47:00;;;;;;;0.85;0.10;;;;;;;-0.56;79.90;97929.84;5044141;28;20171;-74
2023/12/23 05:49:28;;;;;;;0.70;0.20;;;;;;;-0.59;80.05;97929.94;5039206;28;20052;-75
2023/12/23 05:51:55;;;;;;;0.32;0.15;;;;;;;-0.62;79.63;97928.28;5043811;28;20529;-74
2023/12/23 05:54:22;;;;;;;0.60;0.20;;;;;;;-0.62;79.79;97935.13;5042360;28;20128;-74
2023/12/23 05:56:49;;;;;;;2.00;0.10;;;;;;;-0.64;79.96;97932.59;5045532;28;20916;-74
2023/12/23 05:59:16;;;;;;;0.10;0.08;;;;;;;-0.64;79.98;97947.16;5043067;28;20132;-75
2023/12/23 06:01:43;;;;;;;0.30;0.17;;;;;;;-0.78;79.43;97925.19;5039134;28;20159;-73
2023/12/23 06:04:10;;;;;;;0.32;0.15;;;;;;;-0.70;79.93;97940.44;5044234;28;20140;-74
2023/12/23 06:06:38;;;;;;;0.82;0.30;;;;;;;-0.70;80.09;97963.53;5040926;28;20081;-73
2023/12/23 06:09:05;;;;;;;0.38;0.20;;;;;;;-0.71;79.39;97959.28;5041442;28;20079;-74
2023/12/23 06:11:32;;;;;;;0.40;0.20;;;;;;;-0.72;79.77;97954.19;5042207;28;20052;-73
2023/12/23 06:13:59;;;;;;;1.13;0.20;;;;;;;-0.73;79.77;97967.91;5041502;28;20515;-73
2023/12/23 06:16:26;;;;;;;0.22;0.20;;;;;;;-0.75;79.47;97961.97;5044167;28;20049;-74
2023/12/23 06:18:52;;;;;;;1.58;0.20;;;;;;;-0.75;79.96;97967.94;5019182;28;20479;-75
2023/12/23 06:21:19;;;;;;;1.25;0.30;;;;;;;-0.77;79.76;97964.56;5040668;28;20128;-74
2023/12/23 06:23:48;;;;;;;0.82;0.30;;;;;;;-0.78;79.80;97968.00;5045030;28;20053;-74
2023/12/23 06:26:15;;;;;;;0.50;0.20;;;;;;;-0.80;80.30;97970.63;5037225;28;20088;-75
2023/12/23 06:28:42;;;;;;;0.60;0.38;;;;;;;-0.81;79.94;97971.47;5040083;28;20922;-74
2023/12/23 06:31:08;;;;;;;3.38;0.40;;;;;;;-0.85;79.75;97969.88;5041418;28;20148;-74
2023/12/23 06:33:35;;;;;;;0.93;0.30;;;;;;;-0.83;80.04;97980.09;5037781;28;20162;-74
2023/12/23 06:36:03;;;;;;;1.40;0.30;;;;;;;-0.84;80.02;97984.38;5045587;28;20120;-73
2023/12/23 06:38:30;;;;;;;0.85;0.40;;;;;;;-0.85;79.92;97992.13;5041785;28;20101;-74
2023/12/23 06:40:59;;;;;;;0.70;0.30;;;;;;;-0.89;79.72;98003.31;5043635;28;20124;-74
2023/12/23 06:43:25;;;;;;;0.95;0.38;;;;;;;-0.89;79.47;97996.47;5042070;28;20072;-74
2023/12/23 06:45:53;;;;;;;1.23;0.30;;;;;;;-0.91;80.11;98003.38;5044311;28;20518;-73
2023/12/23 06:48:21;;;;;;;0.70;0.30;;;;;;;-0.95;79.66;98009.41;5040078;28;20128;-74
2023/12/23 06:50:48;;;;;;;1.55;0.30;;;;;;;-0.94;79.69;98008.56;5040316;28;20080;-76
2023/12/23 06:53:15;;;;;;;0.60;0.30;;;;;;;-0.96;79.19;98019.75;5037522;28;20152;-74
2023/12/23 06:55:42;;;;;;;1.63;0.28;;;;;;;-0.98;79.29;98019.75;5043101;28;20522;-74
2023/12/23 06:58:10;;;;;;;0.55;0.32;;;;;;;-0.99;79.43;98025.78;5041848;28;20076;-73
2023/12/23 07:00:37;;;;;;;2.05;0.40;;;;;;;-1.03;79.23;98030.13;5042854;28;20554;-71
2023/12/23 07:03:06;;;;;;;0.40;0.20;;;;;;;-1.04;79.66;98032.72;5041761;28;20052;-71
2023/12/23 07:05:33;;;;;;;1.45;0.32;;;;;;;-1.05;79.34;98038.72;5042907;28;20640;-71
2023/12/23 07:08:00;;;;;;;1.02;0.50;;;;;;;-1.08;79.55;98044.75;5037980;28;20068;-71
2023/12/23 07:10:27;;;;;;;1.58;0.40;;;;;;;-1.08;79.53;98049.06;5039603;28;20128;-72
2023/12/23 07:12:54;;;;;;;2.50;0.40;;;;;;;-1.11;79.51;98059.38;5040243;28;20072;-71
2023/12/23 07:15:22;;;;;;;0.60;0.30;;;;;;;-1.14;79.55;98047.44;5041834;28;20133;-72
2023/12/23 07:17:49;;;;;;;1.95;0.40;;;;;;;-1.16;79.25;98053.47;5037857;28;20478;-72
2023/12/23 07:20:16;;;;;;;0.68;0.40;;;;;;;-1.19;78.96;98058.69;5038756;28;20076;-71
2023/12/23 07:22:43;;;;;;;0.50;0.30;;;;;;;-1.22;79.06;98064.72;5042393;28;20128;-71
2023/12/23 07:25:10;;;;;;;1.10;0.30;;;;;;;-1.26;79.18;98066.50;5042084;28;20581;-71
2023/12/23 07:27:37;;;;;;;0.50;0.20;;;;;;;-1.28;78.68;98075.94;5044328;28;20117;-71
2023/12/23 07:30:04;;;;;;;1.10;0.50;;;;;;;-1.31;78.49;98075.16;5038255;28;20136;-71
2023/12/23 07:32:33;;;;;;;0.82;0.40;;;;;;;-1.32;78.92;98081.97;5040092;28;20120;-71
2023/12/23 07:34:59;;;;;;;1.73;0.30;;;;;;;-1.34;78.60;98081.19;5040040;28;20478;-71
2023/12/23 07:37:26;;;;;;;0.60;0.17;;;;;;;-1.36;78.12;98088.03;5041530;28;20132;-72
2023/12/23 07:39:54;;;;;;;1.98;0.25;;;;;;;-1.41;78.48;98081.31;5035998;28;20045;-72
2023/12/23 07:42:21;;;;;;;0.88;0.30;;;;;;;-1.41;78.87;98094.97;5036453;28;20060;-71
2023/12/23 07:44:47;;;;;;;0.77;0.40;;;;;;;-1.44;78.48;98091.63;5039080;28;20771;-72
2023/12/23 07:47:14;;;;;;;1.20;0.30;;;;;;;-1.47;78.18;98092.50;5039663;28;20168;-72
2023/12/23 07:49:43;;;;;;;1.20;0.40;;;;;;;-1.49;78.88;98094.25;5037387;28;20116;-72
2023/12/23 07:52:10;;;;;;;0.50;0.30;;;;;;;-1.51;78.36;98093.44;5037789;28;20053;-71
2023/12/23 07:54:36;;;;;;;1.83;0.43;;;;;;;-1.56;78.30;98096.06;5035006;28;20154;-71
2023/12/23 07:57:04;;;;;;;0.73;0.32;;;;;;;-1.55;78.52;98099.47;5038002;28;20132;-71
2023/12/23 07:59:31;;;;;;;1.58;0.57;;;;;;;-1.58;78.38;98097.81;5035639;28;20774;-72
2023/12/23 08:01:58;;;;;;;1.52;0.65;;;;;;;-1.64;79.13;98091.94;5041916;28;20120;-76
2023/12/23 08:04:25;;;;;;;0.75;0.43;;;;;;;-1.62;78.18;98101.31;5042044;28;20054;-76
2023/12/23 08:06:54;;;;;;;0.70;0.30;;;;;;;-1.63;78.56;98114.13;5041919;28;20140;-77
2023/12/23 08:09:22;;;;;;;0.80;0.55;;;;;;;-1.66;78.16;98112.47;5045162;28;20491;-75
2023/12/23 08:11:49;;;;;;;1.33;0.30;;;;;;;-1.67;78.15;98117.63;5036901;28;20084;-74
2023/12/23 08:14:15;;;;;;;1.20;0.30;;;;;;;-1.73;78.19;98111.72;5038055;28;20084;-74
2023/12/23 08:16:42;;;;;;;1.00;0.40;;;;;;;-1.72;78.17;98121.09;5037885;28;20073;-75
2023/12/23 08:19:09;;;;;;;0.75;0.32;;;;;;;-1.75;78.19;98116.03;5037441;28;20080;-73
2023/12/23 08:21:36;;;;;;;2.05;0.40;;;;;;;-1.75;78.43;98126.28;5038865;28;20463;-74
2023/12/23 08:24:05;;;;;;;1.15;0.60;;;;;;;-1.76;78.25;98129.72;5040947;28;20148;-74
2023/12/23 08:26:33;;;;;;;1.00;0.43;;;;;;;-1.76;77.63;98129.72;5035606;28;20124;-74
2023/12/23 08:29:00;;;;;;;1.05;0.40;;;;;;;-1.78;77.71;98138.31;5039992;28;20041;-74
2023/12/23 08:31:27;;;;;;;0.60;0.30;;;;;;;-1.79;78.66;98137.47;5041534;28;20089;-74
2023/12/23 08:33:54;;;;;;;1.55;0.40;;;;;;;-1.82;77.68;98140.06;5039799;28;21127;-74
2023/12/23 08:36:21;;;;;;;3.25;0.57;;;;;;;-1.83;77.93;98140.09;5035800;28;20106;-74
2023/12/23 08:38:48;;;;;;;0.93;0.30;;;;;;;-1.85;77.62;98147.81;5040549;28;20072;-73
2023/12/23 08:41:16;;;;;;;1.10;0.40;;;;;;;-1.87;78.14;98148.69;5039008;28;20148;-73
2023/12/23 08:43:43;;;;;;;0.52;0.30;;;;;;;-1.88;77.62;98145.28;5036004;28;20129;-73
2023/12/23 08:46:10;;;;;;;0.80;0.38;;;;;;;-1.91;78.51;98143.63;5040667;28;20140;-74
2023/12/23 08:48:38;;;;;;;3.45;0.60;;;;;;;-1.89;78.26;98141.03;5040292;28;20495;-74
2023/12/23 08:51:05;;;;;;;6.15;1.48;;;;;;;-1.91;78.01;98145.34;5032530;28;20056;-73
2023/12/23 08:53:32;;;;;;;1.52;0.50;;;;;;;-1.91;78.06;98153.03;5042466;28;20045;-74
2023/12/23 08:55:59;;;;;;;1.10;0.32;;;;;;;-1.92;77.94;98153.88;5039189;28;20131;-85
2023/12/23 08:58:29;;;;;;;0.80;0.50;;;;;;;-1.94;78.25;98168.41;5040940;28;20567;-75
2023/12/23 09:00:56;;;;;;;1.83;0.77;;;;;;;-1.96;78.21;98167.63;5042692;28;20128;-76
2023/12/23 09:03:22;;;;;;;0.70;0.30;;;;;;;-1.98;77.69;98179.59;5041563;28;20072;-76
2023/12/23 09:05:50;;;;;;;3.20;1.13;;;;;;;-2.00;77.87;98169.34;5045936;28;20122;-79
2023/12/23 09:08:17;;;;;;;3.88;0.90;;;;;;;-2.01;77.47;98159.16;5049161;28;20072;-76
2023/12/23 09:10:44;;;;;;;1.23;0.60;;;;;;;-2.02;77.92;98173.69;5049579;28;20136;-80
2023/12/23 09:13:11;;;;;;;1.85;0.52;;;;;;;-2.03;77.60;98178.81;5045583;28;20045;-74
2023/12/23 09:15:40;;;;;;;4.22;0.70;;;;;;;-2.06;78.03;98178.84;5045474;28;20044;-74
2023/12/23 09:18:07;;;;;;;2.15;0.60;;;;;;;-2.08;78.23;98184.00;5040403;28;20084;-74
2023/12/23 09:20:34;;;;;;;2.28;0.90;;;;;;;-2.09;77.72;98182.28;5047950;28;20475;-73
2023/12/23 09:23:01;;;;;;;0.80;0.40;;;;;;;-2.09;77.89;98189.97;5042681;28;20071;-74
2023/12/23 09:25:28;;;;;;;1.77;0.57;;;;;;;-2.10;78.35;98188.31;5027406;28;20073;-75
2023/12/23 09:27:55;;;;;;;0.98;0.30;;;;;;;-2.10;77.43;98184.91;5023957;28;20073;-75
2023/12/23 09:30:22;;;;;;;1.08;0.40;;;;;;;-2.10;78.21;98190.88;5023196;28;20080;-75
2023/12/23 09:32:50;;;;;;;1.15;0.43;;;;;;;-2.13;77.79;98190.91;5026478;28;20077;-76
2023/12/23 09:35:17;;;;;;;0.90;0.40;;;;;;;-2.11;78.24;98198.56;5024563;28;20515;-74
2023/12/23 09:37:45;;;;;;;0.90;0.40;;;;;;;-2.13;77.67;98186.63;5023229;28;20125;-74
2023/12/23 09:40:13;;;;;;;1.20;0.38;;;;;;;-2.14;77.98;98186.63;5024519;28;20056;-75
2023/12/23 09:42:41;;;;;;;2.47;0.40;;;;;;;-2.19;77.71;98176.47;5019588;28;20447;-76
2023/12/23 09:45:09;;;;;;;3.00;0.60;;;;;;;-2.16;78.08;98191.78;5023754;28;20081;-76
2023/12/23 09:47:38;;;;;;;1.23;0.35;;;;;;;-2.19;77.61;98196.13;5022751;28;20614;-76
2023/12/23 09:50:07;;;;;;;2.03;0.68;;;;;;;-2.15;78.05;98195.19;5024156;28;20053;-76
2023/12/23 09:52:35;;;;;;;1.33;0.28;;;;;;;-2.15;77.58;98192.63;5022070;28;20092;-76
2023/12/23 09:55:03;;;;;;;0.80;0.40;;;;;;;-2.17;77.41;98205.47;5022164;28;20084;-75
2023/12/23 09:57:32;;;;;;;3.42;1.10;;;;;;;-2.17;77.67;98197.78;5025057;28;20057;-75
2023/12/23 09:59:59;;;;;;;1.35;0.68;;;;;;;-2.18;77.87;98214.00;5024290;28;20076;-75
2023/12/23 10:02:26;;;;;;;0.82;0.30;;;;;;;-2.19;77.36;98207.19;5026443;28;20583;-75
2023/12/23 10:04:53;;;;;;;1.33;0.47;;;;;;;-2.20;77.42;98213.16;5023494;28;20092;-76
2023/12/23 10:07:21;;;;;;;1.13;0.43;;;;;;;-2.20;77.80;98213.16;5023619;28;20084;-78
2023/12/23 10:09:50;;;;;;;0.98;0.40;;;;;;;-2.20;77.19;98213.16;5025653;28;20077;-76
2023/12/23 10:12:17;;;;;;;1.52;0.60;;;;;;;-2.20;77.50;98210.59;5020731;28;20060;-77
2023/12/23 10:14:44;;;;;;;1.55;0.40;;;;;;;-2.20;77.77;98220.84;5023069;28;20053;-77
2023/12/23 10:17:11;;;;;;;0.90;0.43;;;;;;;-2.19;77.92;98226.84;5022625;28;20161;-77
2023/12/23 10:19:38;;;;;;;1.13;0.40;;;;;;;-2.19;77.52;98220.00;5018692;28;20296;-79
2023/12/23 10:22:06;;;;;;;0.68;0.20;;;;;;;-2.19;77.47;98231.97;5026134;28;20050;-78
2023/12/23 10:24:37;;;;;;;0.82;0.40;;;;;;;-2.22;77.79;98220.03;5037527;28;20077;-78
2023/12/23 10:27:05;;;;;;;1.17;0.35;;;;;;;-2.24;77.52;98224.34;5045548;28;20052;-79
2023/12/23 10:29:34;;;;;;;1.67;0.60;;;;;;;-2.19;77.64;98231.97;5042737;28;20073;-76
2023/12/23 10:32:04;;;;;;;0.80;0.28;;;;;;;-2.19;77.42;98237.94;5042304;28;20044;-75
2023/12/23 10:34:42;;;;;;;1.45;0.52;;;;;;;-2.20;78.15;98236.22;5038478;28;20111;-75
2023/12/23 10:37:10;;;;;;;0.65;0.20;;;;;;;-2.19;77.24;98231.97;5046077;28;20128;-75
2023/12/23 10:39:46;;;;;;;0.52;0.32;;;;;;;-2.19;77.78;98243.06;5041273;28;20173;-75
2023/12/23 10:42:20;;;;;;;1.50;0.50;;;;;;;-2.19;77.78;98242.22;5044560;28;20037;-75
2023/12/23 10:44:48;;;;;;;1.00;0.40;;;;;;;-2.18;77.47;98249.03;5039890;28;20125;-76
2023/12/23 10:47:15;;;;;;;1.10;0.30;;;;;;;-2.19;77.68;98247.34;5041075;28;20124;-76
2023/12/23 10:49:45;;;;;;;2.50;0.70;;;;;;;-2.19;77.88;98257.59;5040431;28;20128;-75
2023/12/23 10:52:13;;;;;;;2.88;0.57;;;;;;;-2.19;77.42;98257.59;5041466;28;20103;-75
2023/12/23 10:54:40;;;;;;;1.55;0.70;;;;;;;-2.19;77.35;98261.00;5041873;28;20048;-75
2023/12/23 10:57:08;;;;;;;1.58;0.55;;;;;;;-2.20;77.40;98251.59;5037554;28;20052;-75
2023/12/23 10:59:35;;;;;;;2.20;0.63;;;;;;;-2.18;77.45;98249.88;5039788;28;20128;-75
2023/12/23 11:02:12;;;;;;;1.67;0.50;;;;;;;-2.19;77.51;98253.31;5040698;28;20052;-76
2023/12/23 11:04:39;;;;;;;1.00;0.40;;;;;;;-2.21;77.61;98255.03;5039932;28;20045;-76
2023/12/23 11:07:08;;;;;;;0.43;0.30;;;;;;;-2.22;77.15;98266.16;5043026;28;20072;-75
2023/12/23 11:09:35;;;;;;;2.28;0.70;;;;;;;-2.23;78.18;98273.84;5041118;28;20045;-77
2023/12/23 11:12:05;;;;;;;3.20;0.70;;;;;;;-2.24;77.99;98279.84;5046786;28;20144;-76
2023/12/23 11:14:32;;;;;;;2.00;0.50;;;;;;;-2.26;78.27;98279.84;5035985;28;20132;-77
2023/12/23 11:16:59;;;;;;;1.95;0.60;;;;;;;-2.30;77.52;98275.63;5041093;28;20534;-76
2023/12/23 11:19:26;;;;;;;1.48;0.40;;;;;;;-2.27;78.43;98287.56;5044460;28;20045;-75
2023/12/23 11:22:20;;;;;;;1.58;0.50;;;;;;;-2.28;78.23;98283.28;5043669;28;20123;-76
2023/12/23 11:24:47;;;;;;;2.30;0.57;;;;;;;-2.34;78.31;98284.19;5038489;28;20089;-77
2023/12/23 11:27:29;;;;;;;1.75;0.52;;;;;;;-2.29;77.84;98296.97;5040571;28;20124;-75
2023/12/23 11:30:02;;;;;;;1.17;0.55;;;;;;;-2.32;77.64;98287.59;5035617;28;20056;-72
2023/12/23 11:32:48;;;;;;;2.40;0.70;;;;;;;-2.32;78.18;98302.97;5035841;28;20059;-72
2023/12/23 11:35:15;;;;;;;0.90;0.40;;;;;;;-2.33;78.18;98295.31;5036852;28;20061;-73
2023/12/23 11:37:48;;;;;;;2.03;0.65;;;;;;;-2.33;77.84;98301.28;5041507;28;20518;-72
2023/12/23 11:40:16;;;;;;;1.75;0.55;;;;;;;-2.34;77.53;98299.56;5041490;28;20534;-75